Decoded Metar for PAPG (PETERSBURG in AK, USA) (IATA:PSG) | Meteo·Mobile Aviation Weather
aviador You're here:

PAPG Decoded Metar

PETERSBURG in AK, USA
Report Time2019-01-21 16:56:00
UTC Time2019-01-21 17:02:39
Flight Rules mvfr MVFR
WindCalm
Visibility9999 m
Phenomena:Light Rain
Clouds:Few 003 Hf
Scattered 006 Hf
Broken 017 Hf
Ceiling1,700 ft
Temp01°C (ISA -14)
Dew Point01°C (100% RH)
AAT-0.8°C
QNH1015 hPa
Density Alt-1,624 ft
Elevation49 ft
Report Wrong Elevation
Raw Report
PAPG 211656Z 00000KT 10SM -RA FEW003 SCT006 BKN017 01/01 A2997 RMK
AO2 UPB01E15B47E54RAB15 SLP151 P0002 T00060006=

Extra information for PAPG:More info

Metar Taf Metar & Taf Last 4 Metars F.Rules Stats Wind Profile Meteogram Temp Stats Airport Information Weather charts Add Link Nearby VenuesMetar ALERT Operation Metar Decoded Social comments

AIRNAV info for PAPG